Time;durP1;ratioP1;P1;durP2;ratioP2;P2;SDS_P1;SDS_P2;PMS_P1;PMS_P2;Temp;Humidity;BMP_temperature;BMP_pressure;BME280_temperature;BME280_humidity;BME280_pressure;Samples;Min_cycle;Max_cycle;Signal;HPM_P1;HPM_P2
2021/01/28 00:01:22;;;;;;;5.25;4.30;;;18.70;64.60;;;;;;4989794;28;20029;-33
2021/01/28 00:03:47;;;;;;;4.55;4.10;;;18.60;64.80;;;;;;4986365;28;20058;-31
2021/01/28 00:06:13;;;;;;;5.05;3.88;;;18.60;64.70;;;;;;4986797;28;20523;-33
2021/01/28 00:08:39;;;;;;;4.65;4.25;;;18.60;64.80;;;;;;4987052;28;20031;-33
2021/01/28 00:11:05;;;;;;;4.28;3.90;;;18.60;64.80;;;;;;4989068;28;20030;-34
2021/01/28 00:13:30;;;;;;;4.38;3.97;;;18.70;64.60;;;;;;4988830;28;20026;-34
2021/01/28 00:15:56;;;;;;;4.03;3.72;;;18.60;64.80;;;;;;4987730;28;20026;-29
2021/01/28 00:18:22;;;;;;;5.10;4.20;;;18.60;64.80;;;;;;4987889;28;20117;-32
2021/01/28 00:20:48;;;;;;;4.05;3.65;;;18.60;64.80;;;;;;4988669;28;20117;-35
2021/01/28 00:23:14;;;;;;;4.28;3.95;;;18.60;64.80;;;;;;4987989;28;20030;-33
2021/01/28 00:25:40;;;;;;;3.80;3.40;;;18.60;64.80;;;;;;4988067;28;20046;-34
2021/01/28 00:28:06;;;;;;;4.25;3.75;;;18.60;64.80;;;;;;4990065;28;20503;-33
2021/01/28 00:30:37;;;;;;;3.55;3.25;;;18.60;64.70;;;;;;4988070;28;20034;-32
2021/01/28 00:33:02;;;;;;;3.65;3.35;;;18.60;64.70;;;;;;4986537;28;20022;-27
2021/01/28 00:35:39;;;;;;;3.67;3.38;;;18.60;64.70;;;;;;4988017;28;20034;-29
2021/01/28 00:38:05;;;;;;;3.72;3.42;;;18.60;64.70;;;;;;4988245;28;20110;-30
2021/01/28 00:40:31;;;;;;;3.67;3.33;;;18.60;64.80;;;;;;4987898;28;20033;-34
2021/01/28 00:42:57;;;;;;;3.75;3.45;;;18.50;64.70;;;;;;4989564;28;20031;-32
2021/01/28 00:45:24;;;;;;;2.92;2.70;;;18.50;64.90;;;;;;4986674;28;20046;-33
2021/01/28 00:47:50;;;;;;;3.08;2.88;;;18.50;65.00;;;;;;4986638;28;20056;-29
2021/01/28 00:50:20;;;;;;;4.05;3.40;;;18.50;65.00;;;;;;4989048;28;20502;-29
2021/01/28 00:52:45;;;;;;;3.47;3.22;;;18.50;64.90;;;;;;4972646;28;20023;-32
2021/01/28 00:55:15;;;;;;;3.40;3.10;;;18.50;64.90;;;;;;4989657;28;20038;-31
2021/01/28 00:57:40;;;;;;;3.38;3.08;;;18.50;64.90;;;;;;4986070;28;20046;-29
2021/01/28 01:00:17;;;;;;;2.70;2.50;;;18.50;64.90;;;;;;4986891;28;20034;-33
2021/01/28 01:02:43;;;;;;;3.30;2.85;;;18.50;64.80;;;;;;4987883;28;20018;-33
2021/01/28 01:05:10;;;;;;;3.05;2.75;;;18.60;65.00;;;;;;4986974;28;20061;-26
2021/01/28 01:07:35;;;;;;;2.75;2.53;;;18.60;64.80;;;;;;4987980;28;20065;-30
2021/01/28 01:10:01;;;;;;;3.17;2.97;;;18.60;64.80;;;;;;4989865;28;20069;-30
2021/01/28 01:12:30;;;;;;;2.75;2.55;;;18.60;64.70;;;;;;4989792;28;20437;-33
2021/01/28 01:14:55;;;;;;;3.00;2.80;;;18.60;64.80;;;;;;4987490;28;20026;-33
2021/01/28 01:17:21;;;;;;;2.88;2.67;;;18.60;64.90;;;;;;4989134;28;20030;-28
2021/01/28 01:19:46;;;;;;;2.88;2.38;;;18.50;64.80;;;;;;4988243;28;20030;-31
2021/01/28 01:22:12;;;;;;;2.60;2.40;;;18.60;64.80;;;;;;4989242;28;20109;-27
2021/01/28 01:24:37;;;;;;;2.00;1.90;;;18.60;64.80;;;;;;4986326;28;20121;-27
2021/01/28 01:27:03;;;;;;;2.50;2.30;;;18.60;65.50;;;;;;4986443;28;20037;-30
2021/01/28 01:29:29;;;;;;;2.53;2.33;;;18.60;64.90;;;;;;4987715;28;20064;-29
2021/01/28 01:31:54;;;;;;;2.45;2.25;;;18.60;65.00;;;;;;4987103;28;20114;-33
2021/01/28 01:34:20;;;;;;;2.33;2.22;;;18.50;65.10;;;;;;4988580;28;20064;-28
2021/01/28 01:36:46;;;;;;;2.47;2.28;;;18.50;65.00;;;;;;4987280;28;20117;-32
2021/01/28 01:39:11;;;;;;;2.47;2.35;;;18.50;65.10;;;;;;4987453;28;20027;-28
2021/01/28 01:41:37;;;;;;;2.35;2.15;;;18.50;65.10;;;;;;4987928;28;20030;-29
2021/01/28 01:44:02;;;;;;;2.63;2.42;;;18.50;65.20;;;;;;4987888;28;20445;-33
2021/01/28 01:46:28;;;;;;;2.10;1.90;;;18.50;65.20;;;;;;4986528;28;20114;-28
2021/01/28 01:49:05;;;;;;;2.20;2.10;;;18.50;65.20;;;;;;5001733;28;20075;-32
2021/01/28 01:51:34;;;;;;;2.40;2.15;;;18.50;65.20;;;;;;4988909;28;20018;-31
2021/01/28 01:54:03;;;;;;;2.33;2.13;;;18.50;65.10;;;;;;4986382;28;20552;-33
2021/01/28 01:56:31;;;;;;;2.28;2.10;;;18.40;65.10;;;;;;4987778;28;20030;-27
2021/01/28 01:59:15;;;;;;;2.05;1.95;;;18.50;65.10;;;;;;4987319;28;20045;-34
2021/01/28 02:01:51;;;;;;;1.95;1.85;;;18.50;65.10;;;;;;4986653;28;20030;-29
2021/01/28 02:04:17;;;;;;;2.13;2.03;;;18.50;65.10;;;;;;4987520;28;20100;-33
2021/01/28 02:06:53;;;;;;;2.40;2.20;;;18.50;65.10;;;;;;4988478;28;20404;-31
2021/01/28 02:09:19;;;;;;;2.08;1.98;;;18.50;65.00;;;;;;4987616;28;20030;-27
2021/01/28 02:11:46;;;;;;;2.58;2.35;;;18.50;64.90;;;;;;4991059;28;20036;-29
2021/01/28 02:14:12;;;;;;;2.22;2.00;;;18.50;64.80;;;;;;4990601;28;20031;-26
2021/01/28 02:16:40;;;;;;;2.28;2.10;;;18.40;64.80;;;;;;4989681;28;20030;-31
2021/01/28 02:19:40;;;;;;;1.63;1.52;;;18.50;64.90;;;;;;4991710;28;20057;-26
2021/01/28 02:22:05;;;;;;;2.75;1.98;;;18.50;64.80;;;;;;4991559;28;20034;-36
2021/01/28 02:24:43;;;;;;;1.58;1.48;;;18.40;64.90;;;;;;4990671;28;20133;-31
2021/01/28 02:27:09;;;;;;;1.48;1.38;;;18.50;65.00;;;;;;4990641;28;20027;-30
2021/01/28 02:29:34;;;;;;;2.03;1.92;;;18.50;64.80;;;;;;4989024;28;20536;-27
2021/01/28 02:32:00;;;;;;;1.75;1.40;;;18.50;64.80;;;;;;4990042;28;20022;-28
2021/01/28 02:34:25;;;;;;;1.70;1.60;;;18.50;64.80;;;;;;4991407;28;20030;-26
2021/01/28 02:36:52;;;;;;;1.63;1.52;;;18.50;64.90;;;;;;5004549;28;20038;-31
2021/01/28 02:39:22;;;;;;;1.67;1.58;;;18.50;64.90;;;;;;4990389;28;20015;-38
2021/01/28 02:42:13;;;;;;;1.40;1.30;;;18.50;64.90;;;;;;4989351;28;20039;-26
2021/01/28 02:44:38;;;;;;;1.63;1.27;;;18.60;64.50;;;;;;4997098;28;20840;-27
2021/01/28 02:47:04;;;;;;;1.65;1.55;;;18.60;64.20;;;;;;4990191;28;20031;-27
2021/01/28 02:49:29;;;;;;;1.48;1.38;;;18.60;64.20;;;;;;4990331;28;20588;-26
2021/01/28 02:51:55;;;;;;;1.30;1.20;;;18.60;64.40;;;;;;4992341;28;20046;-26
2021/01/28 02:54:20;;;;;;;1.40;1.30;;;18.50;64.50;;;;;;4989935;28;20022;-31
2021/01/28 02:56:46;;;;;;;1.65;1.55;;;18.60;64.20;;;;;;4990676;28;20037;-30
2021/01/28 02:59:12;;;;;;;1.48;1.38;;;18.60;64.20;;;;;;4989829;28;20416;-27
2021/01/28 03:01:38;;;;;;;1.30;1.20;;;18.60;65.00;;;;;;4990316;28;20066;-28
2021/01/28 03:04:04;;;;;;;1.67;1.58;;;18.60;64.20;;;;;;4991875;28;20551;-27
2021/01/28 03:06:29;;;;;;;1.60;1.50;;;18.60;64.30;;;;;;4989641;28;20121;-26
2021/01/28 03:08:55;;;;;;;1.38;1.27;;;18.50;64.60;;;;;;4990424;28;20098;-30
2021/01/28 03:11:21;;;;;;;1.48;1.38;;;18.50;64.80;;;;;;4990055;28;20030;-27
2021/01/28 03:13:47;;;;;;;1.50;1.40;;;18.40;64.90;;;;;;4989885;28;20110;-34
2021/01/28 03:16:12;;;;;;;1.45;1.35;;;18.40;65.00;;;;;;4991957;28;20452;-28
2021/01/28 03:18:38;;;;;;;1.48;1.38;;;18.40;65.10;;;;;;4988950;28;20056;-27
2021/01/28 03:21:04;;;;;;;1.52;1.10;;;18.40;65.30;;;;;;4990971;28;20062;-30
2021/01/28 03:23:29;;;;;;;1.48;1.38;;;18.40;65.30;;;;;;4990033;28;20449;-28
2021/01/28 03:25:55;;;;;;;1.40;1.30;;;18.40;65.30;;;;;;4987695;28;20454;-29
2021/01/28 03:28:20;;;;;;;1.45;1.30;;;18.40;65.60;;;;;;4990860;28;20093;-29
2021/01/28 03:30:47;;;;;;;1.30;1.20;;;18.40;65.50;;;;;;4990826;28;20034;-34
2021/01/28 03:33:15;;;;;;;0.98;0.90;;;18.40;65.70;;;;;;4989522;28;20066;-31
2021/01/28 03:35:40;;;;;;;1.30;1.25;;;18.30;65.60;;;;;;4988614;28;20022;-30
2021/01/28 03:38:07;;;;;;;1.27;1.15;;;18.30;65.80;;;;;;4989992;28;20079;-28
2021/01/28 03:40:32;;;;;;;1.25;1.10;;;18.30;65.80;;;;;;4989520;28;20491;-27
2021/01/28 03:42:58;;;;;;;1.02;1.02;;;18.30;65.90;;;;;;4991694;28;20093;-32
2021/01/28 03:45:23;;;;;;;1.20;1.10;;;18.30;65.90;;;;;;4989863;28;20042;-32
2021/01/28 03:47:49;;;;;;;1.33;1.23;;;18.30;65.90;;;;;;4988247;28;20054;-27
2021/01/28 03:50:19;;;;;;;1.00;1.00;;;18.30;65.90;;;;;;4989323;28;20493;-32
2021/01/28 03:52:44;;;;;;;1.00;1.00;;;18.30;66.00;;;;;;4974529;28;20019;-29
2021/01/28 03:55:10;;;;;;;1.20;1.10;;;18.30;66.10;;;;;;4990636;28;20113;-26
2021/01/28 03:57:36;;;;;;;1.60;1.50;;;18.30;66.10;;;;;;4987891;28;20030;-29
2021/01/28 04:00:09;;;;;;;1.50;1.40;;;18.30;66.20;;;;;;4989152;28;20125;-27
2021/01/28 04:02:35;;;;;;;1.30;1.20;;;18.30;66.20;;;;;;4988184;28;20022;-29
2021/01/28 04:05:01;;;;;;;1.23;1.13;;;18.30;66.20;;;;;;4987693;28;20042;-36
2021/01/28 04:07:27;;;;;;;1.02;0.95;;;18.20;66.20;;;;;;4987774;28;20026;-34
2021/01/28 04:09:52;;;;;;;1.20;1.10;;;18.20;66.30;;;;;;4989625;28;20038;-29
2021/01/28 04:12:18;;;;;;;1.08;1.08;;;18.20;66.30;;;;;;4989158;28;20022;-35
2021/01/28 04:14:43;;;;;;;0.98;0.98;;;18.20;66.30;;;;;;4989591;28;20034;-28
2021/01/28 04:17:09;;;;;;;1.25;1.15;;;18.20;66.30;;;;;;4989443;28;20101;-27
2021/01/28 04:19:34;;;;;;;0.80;0.80;;;18.20;66.40;;;;;;4988741;28;20496;-26
2021/01/28 04:22:00;;;;;;;1.02;1.00;;;18.20;66.40;;;;;;4991241;28;20026;-26
2021/01/28 04:24:26;;;;;;;1.17;1.08;;;18.20;66.40;;;;;;4988592;28;20053;-27
2021/01/28 04:26:52;;;;;;;1.00;1.00;;;18.20;66.50;;;;;;4987925;28;20034;-28
2021/01/28 04:29:17;;;;;;;0.90;0.90;;;18.20;66.30;;;;;;4987585;28;20030;-27
2021/01/28 04:31:43;;;;;;;1.05;0.93;;;18.20;66.50;;;;;;4988656;28;20114;-28
2021/01/28 04:34:09;;;;;;;0.90;0.90;;;18.20;66.50;;;;;;4990297;28;20027;-31
2021/01/28 04:36:35;;;;;;;0.90;0.80;;;18.20;66.50;;;;;;4988887;28;20056;-32
2021/01/28 04:39:00;;;;;;;0.77;0.77;;;18.20;66.60;;;;;;4987511;28;20026;-28
2021/01/28 04:41:28;;;;;;;0.90;0.90;;;18.20;66.50;;;;;;4987576;28;20491;-29
2021/01/28 04:43:54;;;;;;;0.73;0.73;;;18.20;66.50;;;;;;4971689;28;20026;-29
2021/01/28 04:46:27;;;;;;;0.82;0.82;;;18.20;66.60;;;;;;4988695;28;20052;-34
2021/01/28 04:48:53;;;;;;;0.70;0.70;;;18.20;66.60;;;;;;4989145;28;20018;-30
2021/01/28 04:51:19;;;;;;;0.80;0.80;;;18.20;66.50;;;;;;4989491;28;20490;-31
2021/01/28 04:53:53;;;;;;;0.60;0.60;;;18.20;66.60;;;;;;4986586;28;20109;-29
2021/01/28 04:56:25;;;;;;;1.00;0.90;;;18.20;66.60;;;;;;4979801;28;20064;-27
2021/01/28 04:59:13;;;;;;;0.80;0.80;;;18.20;66.60;;;;;;4986762;28;20128;-26
2021/01/28 05:01:39;;;;;;;0.80;0.80;;;18.20;66.80;;;;;;4972266;28;20099;-30
2021/01/28 05:04:06;;;;;;;0.70;0.70;;;18.20;66.80;;;;;;4990013;28;20472;-28
2021/01/28 05:06:31;;;;;;;0.80;0.80;;;18.20;67.60;;;;;;4986095;28;20038;-33
2021/01/28 05:08:57;;;;;;;0.80;0.80;;;18.20;66.70;;;;;;4989961;28;20022;-28
2021/01/28 05:11:30;;;;;;;0.60;0.60;;;18.20;66.90;;;;;;4988649;28;20035;-28
2021/01/28 05:14:05;;;;;;;0.82;0.70;;;18.20;66.90;;;;;;4987052;28;20029;-34
2021/01/28 05:16:30;;;;;;;0.60;0.60;;;18.20;66.80;;;;;;4987653;28;20416;-28
2021/01/28 05:19:02;;;;;;;1.50;0.80;;;18.20;66.90;;;;;;4987890;28;20046;-30
2021/01/28 05:21:30;;;;;;;0.73;0.73;;;18.10;66.90;;;;;;4986962;28;20026;-26
2021/01/28 05:24:20;;;;;;;0.70;0.70;;;18.10;66.80;;;;;;4989018;28;20042;-31
2021/01/28 05:26:45;;;;;;;0.60;0.60;;;18.10;66.90;;;;;;4995663;28;20065;-29
2021/01/28 05:29:21;;;;;;;0.80;0.80;;;18.10;67.00;;;;;;4971058;28;20620;-30
2021/01/28 05:31:48;;;;;;;0.60;0.60;;;18.10;66.90;;;;;;4987199;28;20034;-33
2021/01/28 05:34:18;;;;;;;0.75;0.50;;;18.10;67.10;;;;;;4989767;28;20112;-27
2021/01/28 05:36:51;;;;;;;0.60;0.60;;;18.10;67.00;;;;;;4987798;28;20031;-27
2021/01/28 05:39:22;;;;;;;0.50;0.50;;;18.10;68.00;;;;;;4986971;28;20026;-29
2021/01/28 05:41:49;;;;;;;0.60;0.60;;;18.10;67.00;;;;;;4989047;28;20018;-27
2021/01/28 05:44:23;;;;;;;0.50;0.50;;;18.10;67.20;;;;;;4987193;28;20437;-30
2021/01/28 05:47:02;;;;;;;0.47;0.47;;;18.10;67.10;;;;;;4986159;28;20034;-32
2021/01/28 05:49:28;;;;;;;0.50;0.50;;;18.10;67.20;;;;;;5037772;28;20098;-29
2021/01/28 05:51:53;;;;;;;0.45;0.45;;;18.10;67.20;;;;;;4987448;28;20515;-34
2021/01/28 05:54:23;;;;;;;0.60;0.60;;;18.10;67.30;;;;;;4986589;28;20044;-34
2021/01/28 05:57:09;;;;;;;0.60;0.60;;;18.10;67.10;;;;;;4987035;28;20026;-28
2021/01/28 05:59:52;;;;;;;0.50;0.50;;;18.10;67.30;;;;;;4985215;28;20022;-32
2021/01/28 06:02:49;;;;;;;0.68;0.68;;;18.10;67.40;;;;;;4983647;28;20027;-31
2021/01/28 06:05:52;;;;;;;0.40;0.40;;;18.10;67.20;;;;;;5001677;28;20133;-31
2021/01/28 06:09:03;;;;;;;0.50;0.50;;;18.10;67.30;;;;;;4987187;28;20111;-32
2021/01/28 06:12:12;;;;;;;0.77;0.50;;;18.20;67.10;;;;;;4989866;28;20519;-30
2021/01/28 06:14:50;;;;;;;0.57;0.57;;;18.20;67.30;;;;;;4986448;28;20049;-29
2021/01/28 06:17:41;;;;;;;0.90;0.90;;;18.10;67.40;;;;;;4985041;28;20034;-33
2021/01/28 06:20:21;;;;;;;1.13;1.02;;;18.20;67.60;;;;;;4982944;28;20030;-29
2021/01/28 06:23:14;;;;;;;0.90;0.90;;;18.20;67.70;;;;;;4983970;28;20057;-27
2021/01/28 06:26:00;;;;;;;1.00;1.00;;;18.20;67.80;;;;;;4985850;28;20058;-30
2021/01/28 06:28:44;;;;;;;0.80;0.80;;;18.20;68.00;;;;;;4969733;28;20390;-28
2021/01/28 06:31:38;;;;;;;0.70;0.70;;;18.20;68.00;;;;;;4987448;28;20026;-31
2021/01/28 06:34:36;;;;;;;0.85;0.85;;;18.30;67.70;;;;;;4986857;28;20030;-27
2021/01/28 06:37:24;;;;;;;0.98;0.82;;;18.30;67.60;;;;;;5049314;28;20064;-28
2021/01/28 06:39:51;;;;;;;0.93;0.90;;;18.30;67.60;;;;;;5032841;28;20037;-32
2021/01/28 06:42:35;;;;;;;0.65;0.65;;;18.20;67.50;;;;;;5030431;28;20521;-31
2021/01/28 06:45:10;;;;;;;0.82;0.60;;;18.20;67.40;;;;;;5048919;28;20178;-33
2021/01/28 06:47:51;;;;;;;0.70;0.70;;;18.20;67.30;;;;;;5049261;28;20036;-36
2021/01/28 06:50:19;;;;;;;1.80;0.90;;;18.20;68.30;;;;;;5028963;28;20066;-31
2021/01/28 06:53:06;;;;;;;0.50;0.50;;;18.20;67.40;;;;;;5032158;28;20037;-29
2021/01/28 06:55:41;;;;;;;1.80;0.75;;;18.10;67.60;;;;;;5032132;28;20029;-32
2021/01/28 06:58:14;;;;;;;0.82;0.70;;;18.20;67.60;;;;;;5047065;28;20025;-29
2021/01/28 07:00:49;;;;;;;1.02;0.75;;;18.20;67.60;;;;;;5037680;28;20491;-35
2021/01/28 07:03:52;;;;;;;0.70;0.70;;;18.20;67.50;;;;;;5043984;28;20056;-38
2021/01/28 07:06:41;;;;;;;22.27;14.68;;;18.20;67.20;;;;;;5011619;28;20048;-35
2021/01/28 07:09:25;;;;;;;26.38;13.02;;;18.20;67.60;;;;;;5011699;28;20030;-29
2021/01/28 07:11:53;;;;;;;10.93;7.27;;;18.20;67.60;;;;;;4995105;28;20041;-37
2021/01/28 07:14:19;;;;;;;10.70;6.53;;;18.30;67.10;;;;;;4999849;28;20031;-32
2021/01/28 07:17:05;;;;;;;6.07;4.65;;;18.30;67.00;;;;;;4928592;29;20049;-32
2021/01/28 07:19:36;;;;;;;221.27;68.13;;;18.30;67.10;;;;;;4930980;28;20114;-37
2021/01/28 07:22:34;;;;;;;159.63;46.78;;;18.30;67.10;;;;;;4935499;28;20085;-30
2021/01/28 07:25:21;;;;;;;148.35;47.42;;;18.30;67.80;;;;;;4946696;28;20101;-36
2021/01/28 07:27:54;;;;;;;101.15;32.53;;;18.30;67.90;;;;;;4945025;28;20050;-31
2021/01/28 07:30:46;;;;;;;129.35;40.00;;;18.30;68.20;;;;;;4947732;28;20051;-32
2021/01/28 07:33:24;;;;;;;92.50;31.98;;;18.30;69.40;;;;;;4941861;28;20512;-33
2021/01/28 07:35:56;;;;;;;72.65;25.95;;;18.30;68.60;;;;;;4985102;28;20046;-37
2021/01/28 07:38:30;;;;;;;73.00;25.73;;;18.30;68.40;;;;;;4932226;28;20123;-36
2021/01/28 07:41:04;;;;;;;87.00;30.15;;;18.30;68.50;;;;;;4916969;29;20147;-34
2021/01/28 07:43:37;;;;;;;101.38;33.47;;;18.40;70.70;;;;;;4949878;28;20051;-33
2021/01/28 07:46:15;;;;;;;88.90;30.73;;;18.40;71.00;;;;;;4994420;28;20053;-32
2021/01/28 07:48:41;;;;;;;88.28;31.05;;;18.40;69.00;;;;;;4953457;28;20055;-33
2021/01/28 07:51:32;;;;;;;106.57;37.78;;;18.40;71.60;;;;;;4946938;28;20049;-35
2021/01/28 07:53:58;;;;;;;110.85;38.03;;;18.40;72.50;;;;;;4976605;28;20049;-34
2021/01/28 07:56:36;;;;;;;109.43;40.20;;;18.40;73.50;;;;;;4968423;28;20133;-35
2021/01/28 07:59:13;;;;;;;150.38;53.80;;;18.30;73.90;;;;;;4957563;28;20558;-36
2021/01/28 08:01:42;;;;;;;107.38;39.00;;;18.30;72.20;;;;;;4978965;28;20055;-33
2021/01/28 08:04:41;;;;;;;100.53;37.65;;;18.30;70.10;;;;;;4955699;28;20047;-34
2021/01/28 08:07:09;;;;;;;91.60;35.63;;;18.30;70.10;;;;;;4904930;28;20052;-37
2021/01/28 08:09:45;;;;;;;104.40;37.70;;;18.30;70.10;;;;;;4929193;28;20052;-33
2021/01/28 08:12:11;;;;;;;92.35;34.92;;;18.30;70.30;;;;;;5014579;28;20045;-36
2021/01/28 08:14:36;;;;;;;97.85;36.85;;;18.30;69.80;;;;;;5002302;28;20629;-35
2021/01/28 08:17:02;;;;;;;99.28;38.25;;;18.30;70.00;;;;;;4991907;28;20116;-36
2021/01/28 08:19:28;;;;;;;91.30;35.72;;;18.30;70.10;;;;;;5024500;28;20072;-34
2021/01/28 08:22:23;;;;;;;88.95;35.30;;;18.30;70.30;;;;;;5021884;28;20129;-32
2021/01/28 08:24:55;;;;;;;94.18;35.83;;;18.30;69.20;;;;;;5012168;28;20053;-30
2021/01/28 08:27:27;;;;;;;91.25;33.72;;;18.30;71.00;;;;;;5018561;28;20484;-36
2021/01/28 08:30:15;;;;;;;74.18;29.20;;;18.30;69.10;;;;;;5014466;28;20137;-34
2021/01/28 08:32:43;;;;;;;71.82;29.90;;;18.40;68.80;;;;;;5012519;28;20052;-30
2021/01/28 08:35:15;;;;;;;76.00;29.67;;;18.40;68.70;;;;;;5005862;28;20045;-35
2021/01/28 08:37:41;;;;;;;70.32;27.55;;;18.40;68.60;;;;;;5005622;28;20546;-33
2021/01/28 08:40:12;;;;;;;70.65;28.58;;;18.30;68.50;;;;;;5024004;28;20053;-31
2021/01/28 08:42:38;;;;;;;73.32;29.75;;;18.40;68.60;;;;;;5005494;28;20563;-33
2021/01/28 08:45:06;;;;;;;73.57;28.98;;;18.40;68.30;;;;;;4973959;28;20069;-38
2021/01/28 08:47:32;;;;;;;70.38;28.75;;;18.40;68.40;;;;;;4975107;28;20125;-34
2021/01/28 08:50:03;;;;;;;68.22;28.20;;;18.40;68.40;;;;;;4965254;28;20146;-30
2021/01/28 08:52:28;;;;;;;75.95;27.67;;;18.40;68.30;;;;;;4967336;28;20039;-35
2021/01/28 08:54:54;;;;;;;72.22;28.95;;;18.40;68.20;;;;;;4982017;28;20309;-37
2021/01/28 08:57:21;;;;;;;63.42;26.50;;;18.40;68.20;;;;;;4976563;28;20051;-34
2021/01/28 08:59:59;;;;;;;63.92;27.88;;;18.50;68.30;;;;;;4963308;28;20514;-35
2021/01/28 09:02:29;;;;;;;67.45;27.35;;;18.40;68.30;;;;;;4983648;28;20050;-30
2021/01/28 09:05:12;;;;;;;66.18;28.13;;;18.50;68.50;;;;;;4983628;28;20107;-33
2021/01/28 09:07:58;;;;;;;64.20;24.80;;;18.50;68.30;;;;;;4965247;28;20051;-32
2021/01/28 09:10:37;;;;;;;64.25;26.83;;;18.50;68.40;;;;;;4986283;28;20051;-31
2021/01/28 09:13:16;;;;;;;62.70;25.52;;;18.50;68.20;;;;;;4977892;28;20572;-29
2021/01/28 09:15:42;;;;;;;59.92;24.80;;;18.50;68.40;;;;;;4975972;28;20047;-31
2021/01/28 09:18:18;;;;;;;55.33;25.40;;;18.60;68.00;;;;;;4974903;28;20045;-32
2021/01/28 09:20:43;;;;;;;61.00;26.73;;;18.60;68.10;;;;;;4981775;28;20415;-32
2021/01/28 09:23:14;;;;;;;52.08;24.80;;;18.60;68.90;;;;;;4983053;28;20126;-37
2021/01/28 09:25:40;;;;;;;57.55;23.33;;;18.60;68.00;;;;;;4981964;28;20487;-33
2021/01/28 09:28:26;;;;;;;57.65;23.23;;;18.60;68.10;;;;;;4987660;28;20517;-35
2021/01/28 09:30:53;;;;;;;58.10;23.25;;;18.60;69.40;;;;;;4986948;28;20137;-32
2021/01/28 09:33:36;;;;;;;56.03;23.30;;;18.70;69.60;;;;;;4975914;28;20047;-35
2021/01/28 09:36:15;;;;;;;49.87;22.50;;;18.60;68.20;;;;;;4963731;28;20511;-31
2021/01/28 09:38:48;;;;;;;50.55;20.20;;;18.60;69.70;;;;;;4957680;28;20313;-31
2021/01/28 09:41:18;;;;;;;47.22;20.63;;;18.70;70.30;;;;;;4957958;28;20043;-34
2021/01/28 09:43:44;;;;;;;46.25;21.52;;;18.70;68.90;;;;;;4964476;28;20050;-32
2021/01/28 09:46:19;;;;;;;43.28;20.52;;;18.70;69.10;;;;;;4964714;28;20512;-31
2021/01/28 09:48:45;;;;;;;41.50;18.60;;;18.70;69.60;;;;;;4958594;28;20046;-34
2021/01/28 09:51:13;;;;;;;43.25;19.00;;;18.70;70.00;;;;;;4960356;28;20024;-40
2021/01/28 09:53:56;;;;;;;42.20;18.35;;;18.70;69.80;;;;;;4959724;28;20575;-34
2021/01/28 09:56:21;;;;;;;42.35;18.45;;;18.70;69.70;;;;;;4954559;28;20031;-33
2021/01/28 09:58:47;;;;;;;42.40;18.17;;;18.70;70.20;;;;;;4956172;28;20500;-35
2021/01/28 10:01:13;;;;;;;37.60;16.48;;;18.70;71.30;;;;;;4963777;28;20030;-34
2021/01/28 10:03:38;;;;;;;37.10;16.45;;;18.70;71.90;;;;;;4962100;28;20652;-40
2021/01/28 10:06:04;;;;;;;36.20;16.75;;;18.80;71.30;;;;;;4959934;28;20047;-31
2021/01/28 10:08:29;;;;;;;38.45;17.13;;;18.80;72.80;;;;;;4961969;28;20083;-31
2021/01/28 10:10:55;;;;;;;33.70;15.98;;;18.80;73.00;;;;;;4961208;28;20038;-34
2021/01/28 10:13:21;;;;;;;34.25;15.65;;;18.80;72.80;;;;;;4960720;28;20031;-30
2021/01/28 10:15:46;;;;;;;36.50;15.88;;;18.80;73.30;;;;;;4956910;28;20054;-34
2021/01/28 10:18:12;;;;;;;35.80;15.88;;;18.80;72.70;;;;;;4970467;28;20054;-34
2021/01/28 10:20:42;;;;;;;35.65;16.33;;;18.80;72.30;;;;;;5002453;28;20062;-33
2021/01/28 10:23:08;;;;;;;33.25;15.73;;;18.80;71.30;;;;;;4964626;28;20058;-34
2021/01/28 10:25:33;;;;;;;30.40;14.93;;;18.80;71.30;;;;;;4966212;28;20050;-32
2021/01/28 10:27:59;;;;;;;29.63;14.32;;;18.80;73.00;;;;;;4983374;28;20157;-30
2021/01/28 10:30:25;;;;;;;27.38;14.00;;;18.80;72.70;;;;;;4977937;28;20030;-35
2021/01/28 10:32:51;;;;;;;25.52;13.32;;;18.80;71.00;;;;;;4981809;28;20061;-33
2021/01/28 10:35:22;;;;;;;29.05;14.05;;;18.80;71.10;;;;;;4989655;28;20026;-32
2021/01/28 10:37:48;;;;;;;27.92;13.20;;;18.80;71.40;;;;;;4970399;28;20023;-34
2021/01/28 10:40:14;;;;;;;23.35;12.05;;;18.90;72.90;;;;;;4983754;28;20023;-31
2021/01/28 10:42:40;;;;;;;25.48;13.18;;;18.90;71.30;;;;;;4970431;28;20050;-32
2021/01/28 10:45:14;;;;;;;25.13;12.63;;;18.90;71.50;;;;;;4972423;28;20077;-35
2021/01/28 10:47:40;;;;;;;23.42;12.45;;;18.90;72.10;;;;;;4977256;28;20042;-34
2021/01/28 10:50:06;;;;;;;25.90;11.65;;;18.90;72.10;;;;;;4992174;28;20024;-31
2021/01/28 10:52:32;;;;;;;21.30;11.07;;;18.90;72.10;;;;;;4971207;28;20031;-31
2021/01/28 10:54:57;;;;;;;29.45;12.32;;;18.90;72.10;;;;;;4982495;28;20117;-30
2021/01/28 10:57:23;;;;;;;19.45;10.52;;;18.90;72.30;;;;;;4970384;28;20031;-33
2021/01/28 10:59:49;;;;;;;20.50;10.57;;;18.90;72.60;;;;;;4972508;28;20540;-33
2021/01/28 11:02:14;;;;;;;21.10;11.00;;;18.90;72.10;;;;;;4972012;28;20100;-36
2021/01/28 11:04:40;;;;;;;23.65;10.90;;;18.80;71.10;;;;;;4969848;28;20039;-36
2021/01/28 11:07:05;;;;;;;20.65;10.90;;;18.80;71.00;;;;;;4974614;28;20415;-30
2021/01/28 11:09:31;;;;;;;18.55;9.90;;;18.80;73.20;;;;;;4980269;28;20023;-30
2021/01/28 11:11:56;;;;;;;20.60;10.75;;;18.80;71.40;;;;;;4969563;28;20057;-33
2021/01/28 11:14:23;;;;;;;20.52;10.52;;;18.80;71.40;;;;;;4967251;28;20030;-31
2021/01/28 11:16:48;;;;;;;21.45;10.70;;;18.80;70.50;;;;;;4970508;28;20027;-32
2021/01/28 11:19:14;;;;;;;21.95;10.25;;;18.80;70.50;;;;;;4966430;28;20045;-37
2021/01/28 11:21:39;;;;;;;20.92;9.27;;;18.80;70.20;;;;;;4971505;28;20401;-33
2021/01/28 11:24:05;;;;;;;16.73;9.35;;;18.80;70.10;;;;;;4976827;28;20027;-32
2021/01/28 11:26:31;;;;;;;17.65;9.02;;;18.80;70.00;;;;;;4620407;28;10000302;-33
2021/01/28 11:28:57;;;;;;;15.50;8.52;;;18.80;69.90;;;;;;4978671;28;20023;-30
2021/01/28 11:31:22;;;;;;;20.63;9.32;;;18.80;70.90;;;;;;4971683;28;20031;-30
2021/01/28 11:33:48;;;;;;;19.48;10.02;;;18.80;70.20;;;;;;4989610;28;20684;-29
2021/01/28 11:36:14;;;;;;;20.77;9.90;;;18.80;70.00;;;;;;4967362;28;20124;-39
2021/01/28 11:38:40;;;;;;;17.25;9.07;;;18.80;69.60;;;;;;4969669;28;20061;-34
2021/01/28 11:41:07;;;;;;;18.50;9.88;;;18.90;69.90;;;;;;4969517;28;20054;-30
2021/01/28 11:43:32;;;;;;;18.27;9.32;;;19.00;69.40;;;;;;4968697;28;20019;-31
2021/01/28 11:45:58;;;;;;;18.38;8.88;;;18.90;69.00;;;;;;4975021;28;20397;-35
2021/01/28 11:48:24;;;;;;;17.50;8.95;;;18.90;69.40;;;;;;4969229;28;20019;-30
2021/01/28 11:50:50;;;;;;;17.92;9.55;;;18.90;70.00;;;;;;4974574;28;20030;-35
2021/01/28 11:53:15;;;;;;;21.50;10.63;;;18.90;70.30;;;;;;4966640;28;20136;-35
2021/01/28 11:55:41;;;;;;;14.90;8.98;;;18.90;69.30;;;;;;4970629;28;20042;-32
2021/01/28 11:58:06;;;;;;;18.15;9.52;;;18.80;69.40;;;;;;4968556;28;20446;-34
2021/01/28 12:00:32;;;;;;;15.88;9.00;;;18.90;70.00;;;;;;4969659;28;20033;-34
2021/01/28 12:02:58;;;;;;;17.85;8.65;;;18.90;69.40;;;;;;4966878;28;20023;-35
2021/01/28 12:05:25;;;;;;;19.35;10.13;;;18.90;69.60;;;;;;4969067;28;20404;-32
2021/01/28 12:07:51;;;;;;;16.50;8.60;;;18.90;69.60;;;;;;4967776;28;20023;-33
2021/01/28 12:10:17;;;;;;;17.08;9.15;;;18.90;69.50;;;;;;4969610;28;20030;-33
2021/01/28 12:12:43;;;;;;;15.48;8.68;;;19.00;69.70;;;;;;4973345;28;20113;-35
2021/01/28 12:15:09;;;;;;;16.70;8.63;;;18.90;70.60;;;;;;4973554;28;20106;-35
2021/01/28 12:17:35;;;;;;;14.73;7.97;;;18.90;70.10;;;;;;4967810;28;20039;-35
2021/01/28 12:20:01;;;;;;;15.77;8.30;;;18.90;69.90;;;;;;4971000;28;20027;-33
2021/01/28 12:22:26;;;;;;;16.92;8.95;;;18.90;70.30;;;;;;4968659;28;20031;-29
2021/01/28 12:24:52;;;;;;;16.95;8.07;;;18.90;70.10;;;;;;4972571;28;20047;-32
2021/01/28 12:27:18;;;;;;;16.67;6.93;;;18.90;69.60;;;;;;4977920;28;20050;-33
2021/01/28 12:29:43;;;;;;;13.73;8.18;;;18.90;69.90;;;;;;4972622;28;20479;-32
2021/01/28 12:32:09;;;;;;;14.98;7.93;;;18.90;69.90;;;;;;4957483;28;20080;-32
2021/01/28 12:34:35;;;;;;;13.10;7.80;;;18.90;70.30;;;;;;4969432;28;20031;-30
2021/01/28 12:37:00;;;;;;;10.63;6.95;;;18.90;70.30;;;;;;4963170;28;20023;-31
2021/01/28 12:39:26;;;;;;;10.02;6.63;;;18.80;69.90;;;;;;4964053;28;20054;-33
2021/01/28 12:41:52;;;;;;;14.20;7.10;;;18.90;70.00;;;;;;4976084;28;20119;-34
2021/01/28 12:44:17;;;;;;;13.55;7.10;;;18.80;70.00;;;;;;4961522;28;20063;-36
2021/01/28 12:46:43;;;;;;;11.75;6.40;;;18.80;70.40;;;;;;4954704;28;20045;-35
2021/01/28 12:49:08;;;;;;;12.43;6.88;;;18.80;70.10;;;;;;4957916;28;20411;-30
2021/01/28 12:51:34;;;;;;;11.90;6.57;;;18.80;70.50;;;;;;4955942;28;20027;-32
2021/01/28 12:53:59;;;;;;;12.73;6.70;;;18.80;70.30;;;;;;4960776;28;20030;-34